sensor_id;sensor_type;location;lat;lon;timestamp;P1;durP1;ratioP1;P2;durP2;ratioP2
22191;SDS011;11261;52.456;10.850;2022-10-16T00:01:12;1.10;;;0.70;;
22191;SDS011;11261;52.456;10.850;2022-10-16T00:03:41;0.70;;;0.70;;
22191;SDS011;11261;52.456;10.850;2022-10-16T00:06:10;1.65;;;1.00;;
22191;SDS011;11261;52.456;10.850;2022-10-16T00:08:39;1.67;;;0.73;;
22191;SDS011;11261;52.456;10.850;2022-10-16T00:11:09;1.88;;;0.80;;
22191;SDS011;11261;52.456;10.850;2022-10-16T00:13:40;2.40;;;0.82;;
22191;SDS011;11261;52.456;10.850;2022-10-16T00:16:10;3.28;;;1.15;;
22191;SDS011;11261;52.456;10.850;2022-10-16T00:18:40;1.15;;;0.55;;
22191;SDS011;11261;52.456;10.850;2022-10-16T00:21:09;0.88;;;0.60;;
22191;SDS011;11261;52.456;10.850;2022-10-16T00:23:39;1.33;;;0.70;;
22191;SDS011;11261;52.456;10.850;2022-10-16T00:26:07;1.60;;;0.75;;
22191;SDS011;11261;52.456;10.850;2022-10-16T00:28:37;1.15;;;0.60;;
22191;SDS011;11261;52.456;10.850;2022-10-16T00:31:06;2.47;;;0.80;;
22191;SDS011;11261;52.456;10.850;2022-10-16T00:33:36;2.28;;;0.80;;
22191;SDS011;11261;52.456;10.850;2022-10-16T00:36:07;1.35;;;0.88;;
22191;SDS011;11261;52.456;10.850;2022-10-16T00:38:37;3.47;;;0.70;;
22191;SDS011;11261;52.456;10.850;2022-10-16T00:41:06;1.52;;;0.60;;
22191;SDS011;11261;52.456;10.850;2022-10-16T00:43:38;1.00;;;0.60;;
22191;SDS011;11261;52.456;10.850;2022-10-16T00:46:10;0.75;;;0.70;;
22191;SDS011;11261;52.456;10.850;2022-10-16T00:48:45;1.63;;;0.82;;
22191;SDS011;11261;52.456;10.850;2022-10-16T00:51:16;2.92;;;1.20;;
22191;SDS011;11261;52.456;10.850;2022-10-16T00:53:46;2.08;;;0.90;;
22191;SDS011;11261;52.456;10.850;2022-10-16T00:56:15;2.30;;;1.10;;
22191;SDS011;11261;52.456;10.850;2022-10-16T00:58:44;3.20;;;1.58;;
22191;SDS011;11261;52.456;10.850;2022-10-16T01:01:12;1.77;;;0.70;;
22191;SDS011;11261;52.456;10.850;2022-10-16T01:03:40;1.15;;;0.93;;
22191;SDS011;11261;52.456;10.850;2022-10-16T01:06:12;3.35;;;1.33;;
22191;SDS011;11261;52.456;10.850;2022-10-16T01:09:02;1.85;;;0.85;;
22191;SDS011;11261;52.456;10.850;2022-10-16T01:11:43;3.03;;;1.25;;
22191;SDS011;11261;52.456;10.850;2022-10-16T01:14:19;3.00;;;0.75;;
22191;SDS011;11261;52.456;10.850;2022-10-16T01:16:53;1.63;;;1.20;;
22191;SDS011;11261;52.456;10.850;2022-10-16T01:19:38;2.22;;;1.05;;
22191;SDS011;11261;52.456;10.850;2022-10-16T01:22:18;2.90;;;1.40;;
22191;SDS011;11261;52.456;10.850;2022-10-16T01:24:49;1.20;;;0.80;;
22191;SDS011;11261;52.456;10.850;2022-10-16T01:27:19;0.90;;;0.80;;
22191;SDS011;11261;52.456;10.850;2022-10-16T01:29:52;2.10;;;0.90;;
22191;SDS011;11261;52.456;10.850;2022-10-16T01:32:26;1.38;;;0.98;;
22191;SDS011;11261;52.456;10.850;2022-10-16T01:34:58;2.25;;;1.20;;
22191;SDS011;11261;52.456;10.850;2022-10-16T01:37:32;3.10;;;0.85;;
22191;SDS011;11261;52.456;10.850;2022-10-16T01:40:07;2.33;;;1.08;;
22191;SDS011;11261;52.456;10.850;2022-10-16T01:42:41;2.13;;;1.23;;
22191;SDS011;11261;52.456;10.850;2022-10-16T01:45:13;1.52;;;0.80;;
22191;SDS011;11261;52.456;10.850;2022-10-16T01:47:45;1.27;;;0.90;;
22191;SDS011;11261;52.456;10.850;2022-10-16T01:50:16;2.38;;;0.95;;
22191;SDS011;11261;52.456;10.850;2022-10-16T01:52:47;2.10;;;0.93;;
22191;SDS011;11261;52.456;10.850;2022-10-16T01:55:20;3.63;;;1.35;;
22191;SDS011;11261;52.456;10.850;2022-10-16T01:57:54;1.30;;;1.00;;
22191;SDS011;11261;52.456;10.850;2022-10-16T02:00:24;1.73;;;1.25;;
22191;SDS011;11261;52.456;10.850;2022-10-16T02:02:54;1.55;;;0.90;;
22191;SDS011;11261;52.456;10.850;2022-10-16T02:05:25;1.00;;;0.90;;
22191;SDS011;11261;52.456;10.850;2022-10-16T02:07:57;2.63;;;1.63;;
22191;SDS011;11261;52.456;10.850;2022-10-16T02:10:30;4.40;;;1.77;;
22191;SDS011;11261;52.456;10.850;2022-10-16T02:13:02;1.98;;;0.95;;
22191;SDS011;11261;52.456;10.850;2022-10-16T02:15:33;2.05;;;1.20;;
22191;SDS011;11261;52.456;10.850;2022-10-16T02:18:01;1.20;;;0.90;;
22191;SDS011;11261;52.456;10.850;2022-10-16T02:20:32;2.00;;;1.05;;
22191;SDS011;11261;52.456;10.850;2022-10-16T02:23:04;1.13;;;0.93;;
22191;SDS011;11261;52.456;10.850;2022-10-16T02:25:34;1.95;;;0.80;;
22191;SDS011;11261;52.456;10.850;2022-10-16T02:28:09;1.08;;;0.90;;
22191;SDS011;11261;52.456;10.850;2022-10-16T02:30:44;0.85;;;0.68;;
22191;SDS011;11261;52.456;10.850;2022-10-16T02:33:16;1.08;;;0.80;;
22191;SDS011;11261;52.456;10.850;2022-10-16T02:35:46;0.73;;;0.73;;
22191;SDS011;11261;52.456;10.850;2022-10-16T02:38:17;2.50;;;1.23;;
22191;SDS011;11261;52.456;10.850;2022-10-16T02:40:46;2.20;;;0.95;;
22191;SDS011;11261;52.456;10.850;2022-10-16T02:43:16;1.10;;;0.90;;
22191;SDS011;11261;52.456;10.850;2022-10-16T02:45:45;0.70;;;0.70;;
22191;SDS011;11261;52.456;10.850;2022-10-16T02:48:13;0.70;;;0.70;;
22191;SDS011;11261;52.456;10.850;2022-10-16T02:50:41;1.02;;;0.95;;
22191;SDS011;11261;52.456;10.850;2022-10-16T02:53:09;0.70;;;0.70;;
22191;SDS011;11261;52.456;10.850;2022-10-16T02:55:37;1.13;;;0.80;;
22191;SDS011;11261;52.456;10.850;2022-10-16T02:58:05;2.05;;;0.82;;
22191;SDS011;11261;52.456;10.850;2022-10-16T03:00:35;1.30;;;0.80;;
22191;SDS011;11261;52.456;10.850;2022-10-16T03:03:03;1.40;;;1.00;;
22191;SDS011;11261;52.456;10.850;2022-10-16T03:05:31;1.75;;;0.85;;
22191;SDS011;11261;52.456;10.850;2022-10-16T03:07:59;1.67;;;0.90;;
22191;SDS011;11261;52.456;10.850;2022-10-16T03:10:28;1.02;;;0.80;;
22191;SDS011;11261;52.456;10.850;2022-10-16T03:12:56;1.00;;;0.80;;
22191;SDS011;11261;52.456;10.850;2022-10-16T03:15:24;1.20;;;0.80;;
22191;SDS011;11261;52.456;10.850;2022-10-16T03:17:56;1.15;;;1.00;;
22191;SDS011;11261;52.456;10.850;2022-10-16T03:20:25;1.13;;;0.73;;
22191;SDS011;11261;52.456;10.850;2022-10-16T03:22:53;0.85;;;0.75;;
22191;SDS011;11261;52.456;10.850;2022-10-16T03:25:21;0.70;;;0.70;;
22191;SDS011;11261;52.456;10.850;2022-10-16T03:27:50;0.60;;;0.60;;
22191;SDS011;11261;52.456;10.850;2022-10-16T03:30:18;1.10;;;1.00;;
22191;SDS011;11261;52.456;10.850;2022-10-16T03:32:47;3.60;;;0.80;;
22191;SDS011;11261;52.456;10.850;2022-10-16T03:35:16;1.20;;;0.80;;
22191;SDS011;11261;52.456;10.850;2022-10-16T03:37:44;2.22;;;1.30;;
22191;SDS011;11261;52.456;10.850;2022-10-16T03:40:12;0.90;;;0.90;;
22191;SDS011;11261;52.456;10.850;2022-10-16T03:42:41;1.27;;;0.98;;
22191;SDS011;11261;52.456;10.850;2022-10-16T03:45:10;1.52;;;1.10;;
22191;SDS011;11261;52.456;10.850;2022-10-16T03:47:38;1.90;;;1.05;;
22191;SDS011;11261;52.456;10.850;2022-10-16T03:50:07;1.55;;;1.00;;
22191;SDS011;11261;52.456;10.850;2022-10-16T03:52:37;2.05;;;1.10;;
22191;SDS011;11261;52.456;10.850;2022-10-16T03:55:05;1.42;;;1.10;;
22191;SDS011;11261;52.456;10.850;2022-10-16T03:57:34;2.05;;;1.30;;
22191;SDS011;11261;52.456;10.850;2022-10-16T04:00:02;1.67;;;0.98;;
22191;SDS011;11261;52.456;10.850;2022-10-16T04:02:31;1.20;;;1.00;;
22191;SDS011;11261;52.456;10.850;2022-10-16T04:04:59;1.83;;;0.90;;
22191;SDS011;11261;52.456;10.850;2022-10-16T04:07:27;5.93;;;1.30;;
22191;SDS011;11261;52.456;10.850;2022-10-16T04:09:57;1.48;;;0.95;;
22191;SDS011;11261;52.456;10.850;2022-10-16T04:12:26;1.00;;;0.90;;
22191;SDS011;11261;52.456;10.850;2022-10-16T04:14:55;1.65;;;1.08;;
22191;SDS011;11261;52.456;10.850;2022-10-16T04:17:23;1.20;;;1.00;;
22191;SDS011;11261;52.456;10.850;2022-10-16T04:19:52;1.40;;;1.08;;
22191;SDS011;11261;52.456;10.850;2022-10-16T04:22:21;4.03;;;1.52;;
22191;SDS011;11261;52.456;10.850;2022-10-16T04:24:49;2.45;;;1.08;;
22191;SDS011;11261;52.456;10.850;2022-10-16T04:27:18;1.42;;;1.05;;
22191;SDS011;11261;52.456;10.850;2022-10-16T04:29:46;1.90;;;1.23;;
22191;SDS011;11261;52.456;10.850;2022-10-16T04:32:14;2.50;;;1.13;;
22191;SDS011;11261;52.456;10.850;2022-10-16T04:34:43;3.75;;;1.60;;
22191;SDS011;11261;52.456;10.850;2022-10-16T04:37:11;2.20;;;1.40;;
22191;SDS011;11261;52.456;10.850;2022-10-16T04:39:39;2.35;;;1.13;;
22191;SDS011;11261;52.456;10.850;2022-10-16T04:42:07;1.65;;;1.20;;
22191;SDS011;11261;52.456;10.850;2022-10-16T04:44:37;1.85;;;1.30;;
22191;SDS011;11261;52.456;10.850;2022-10-16T04:47:05;2.58;;;1.33;;
22191;SDS011;11261;52.456;10.850;2022-10-16T04:49:33;2.20;;;1.20;;
22191;SDS011;11261;52.456;10.850;2022-10-16T04:52:01;1.40;;;1.10;;
22191;SDS011;11261;52.456;10.850;2022-10-16T04:54:29;1.88;;;1.30;;
22191;SDS011;11261;52.456;10.850;2022-10-16T04:56:58;1.10;;;0.90;;
22191;SDS011;11261;52.456;10.850;2022-10-16T04:59:26;2.58;;;1.10;;
22191;SDS011;11261;52.456;10.850;2022-10-16T05:01:55;1.02;;;0.85;;
22191;SDS011;11261;52.456;10.850;2022-10-16T05:04:23;1.63;;;1.27;;
22191;SDS011;11261;52.456;10.850;2022-10-16T05:06:51;2.38;;;1.20;;
22191;SDS011;11261;52.456;10.850;2022-10-16T05:09:19;2.70;;;1.13;;
22191;SDS011;11261;52.456;10.850;2022-10-16T05:11:47;1.65;;;1.13;;
22191;SDS011;11261;52.456;10.850;2022-10-16T05:14:15;2.80;;;1.30;;
22191;SDS011;11261;52.456;10.850;2022-10-16T05:16:44;2.22;;;1.27;;
22191;SDS011;11261;52.456;10.850;2022-10-16T05:19:15;5.60;;;3.75;;
22191;SDS011;11261;52.456;10.850;2022-10-16T05:21:58;4.45;;;3.78;;
22191;SDS011;11261;52.456;10.850;2022-10-16T05:24:27;3.10;;;2.35;;
22191;SDS011;11261;52.456;10.850;2022-10-16T05:26:55;2.40;;;1.50;;
22191;SDS011;11261;52.456;10.850;2022-10-16T05:29:23;3.88;;;1.55;;
22191;SDS011;11261;52.456;10.850;2022-10-16T05:31:51;2.03;;;1.10;;
22191;SDS011;11261;52.456;10.850;2022-10-16T05:34:21;1.95;;;1.23;;
22191;SDS011;11261;52.456;10.850;2022-10-16T05:36:50;1.35;;;1.10;;
22191;SDS011;11261;52.456;10.850;2022-10-16T05:39:18;1.60;;;1.08;;
22191;SDS011;11261;52.456;10.850;2022-10-16T05:41:47;3.03;;;1.35;;
22191;SDS011;11261;52.456;10.850;2022-10-16T05:44:17;2.03;;;1.40;;
22191;SDS011;11261;52.456;10.850;2022-10-16T05:46:45;1.48;;;1.05;;
22191;SDS011;11261;52.456;10.850;2022-10-16T05:49:14;1.60;;;1.20;;
22191;SDS011;11261;52.456;10.850;2022-10-16T05:51:44;2.92;;;1.42;;
22191;SDS011;11261;52.456;10.850;2022-10-16T05:54:12;1.52;;;1.20;;
22191;SDS011;11261;52.456;10.850;2022-10-16T05:56:40;1.42;;;1.20;;
22191;SDS011;11261;52.456;10.850;2022-10-16T05:59:08;2.45;;;1.45;;
22191;SDS011;11261;52.456;10.850;2022-10-16T06:01:36;1.73;;;1.17;;
22191;SDS011;11261;52.456;10.850;2022-10-16T06:04:04;1.77;;;1.25;;
22191;SDS011;11261;52.456;10.850;2022-10-16T06:06:33;1.23;;;1.08;;
22191;SDS011;11261;52.456;10.850;2022-10-16T06:09:03;5.25;;;1.50;;
22191;SDS011;11261;52.456;10.850;2022-10-16T06:11:32;2.88;;;1.40;;
22191;SDS011;11261;52.456;10.850;2022-10-16T06:14:01;1.83;;;1.10;;
22191;SDS011;11261;52.456;10.850;2022-10-16T06:16:33;2.60;;;1.17;;
22191;SDS011;11261;52.456;10.850;2022-10-16T06:19:02;2.88;;;1.65;;
22191;SDS011;11261;52.456;10.850;2022-10-16T06:21:33;1.63;;;1.40;;
22191;SDS011;11261;52.456;10.850;2022-10-16T06:24:01;1.80;;;1.40;;
22191;SDS011;11261;52.456;10.850;2022-10-16T06:26:30;2.53;;;1.50;;
22191;SDS011;11261;52.456;10.850;2022-10-16T06:28:59;2.95;;;1.90;;
22191;SDS011;11261;52.456;10.850;2022-10-16T06:31:27;3.95;;;1.70;;
22191;SDS011;11261;52.456;10.850;2022-10-16T06:33:57;2.90;;;1.40;;
22191;SDS011;11261;52.456;10.850;2022-10-16T06:36:26;3.58;;;1.70;;
22191;SDS011;11261;52.456;10.850;2022-10-16T06:38:54;2.10;;;1.83;;
22191;SDS011;11261;52.456;10.850;2022-10-16T06:41:22;2.83;;;1.80;;
22191;SDS011;11261;52.456;10.850;2022-10-16T06:43:52;4.10;;;1.80;;
22191;SDS011;11261;52.456;10.850;2022-10-16T06:46:20;3.13;;;2.13;;
22191;SDS011;11261;52.456;10.850;2022-10-16T06:48:50;4.18;;;1.33;;
22191;SDS011;11261;52.456;10.850;2022-10-16T06:51:18;2.10;;;1.50;;
22191;SDS011;11261;52.456;10.850;2022-10-16T06:53:48;5.50;;;1.85;;
22191;SDS011;11261;52.456;10.850;2022-10-16T06:56:33;1.42;;;1.30;;
22191;SDS011;11261;52.456;10.850;2022-10-16T06:59:03;3.05;;;1.60;;
22191;SDS011;11261;52.456;10.850;2022-10-16T07:01:31;1.70;;;1.23;;
22191;SDS011;11261;52.456;10.850;2022-10-16T07:04:00;2.08;;;1.40;;
22191;SDS011;11261;52.456;10.850;2022-10-16T07:06:30;4.05;;;1.75;;
22191;SDS011;11261;52.456;10.850;2022-10-16T07:09:01;3.55;;;1.60;;
22191;SDS011;11261;52.456;10.850;2022-10-16T07:11:31;1.92;;;1.70;;
22191;SDS011;11261;52.456;10.850;2022-10-16T07:13:59;5.22;;;2.13;;
22191;SDS011;11261;52.456;10.850;2022-10-16T07:16:29;3.25;;;2.33;;
22191;SDS011;11261;52.456;10.850;2022-10-16T07:18:59;3.30;;;1.70;;
22191;SDS011;11261;52.456;10.850;2022-10-16T07:21:29;1.90;;;1.67;;
22191;SDS011;11261;52.456;10.850;2022-10-16T07:24:02;2.05;;;1.58;;
22191;SDS011;11261;52.456;10.850;2022-10-16T07:26:32;4.15;;;1.60;;
22191;SDS011;11261;52.456;10.850;2022-10-16T07:29:02;4.90;;;2.00;;
22191;SDS011;11261;52.456;10.850;2022-10-16T07:31:32;4.05;;;1.70;;
22191;SDS011;11261;52.456;10.850;2022-10-16T07:34:00;2.10;;;1.40;;
22191;SDS011;11261;52.456;10.850;2022-10-16T07:36:28;2.53;;;1.27;;
22191;SDS011;11261;52.456;10.850;2022-10-16T07:38:56;1.25;;;1.15;;
22191;SDS011;11261;52.456;10.850;2022-10-16T07:41:25;3.15;;;1.50;;
22191;SDS011;11261;52.456;10.850;2022-10-16T07:43:54;2.97;;;1.45;;
22191;SDS011;11261;52.456;10.850;2022-10-16T07:46:26;2.25;;;1.20;;
22191;SDS011;11261;52.456;10.850;2022-10-16T07:48:56;1.23;;;1.08;;
22191;SDS011;11261;52.456;10.850;2022-10-16T07:51:25;1.30;;;1.00;;
22191;SDS011;11261;52.456;10.850;2022-10-16T07:53:53;1.38;;;1.00;;
22191;SDS011;11261;52.456;10.850;2022-10-16T07:56:22;1.10;;;0.90;;
22191;SDS011;11261;52.456;10.850;2022-10-16T07:58:51;1.48;;;0.80;;
22191;SDS011;11261;52.456;10.850;2022-10-16T08:01:19;0.70;;;0.70;;
22191;SDS011;11261;52.456;10.850;2022-10-16T08:03:49;0.95;;;0.80;;
22191;SDS011;11261;52.456;10.850;2022-10-16T08:06:20;1.35;;;0.95;;
22191;SDS011;11261;52.456;10.850;2022-10-16T08:08:53;1.10;;;0.90;;
22191;SDS011;11261;52.456;10.850;2022-10-16T08:11:22;1.45;;;0.80;;
22191;SDS011;11261;52.456;10.850;2022-10-16T08:13:50;0.85;;;0.80;;
22191;SDS011;11261;52.456;10.850;2022-10-16T08:16:18;2.25;;;0.90;;
22191;SDS011;11261;52.456;10.850;2022-10-16T08:18:46;1.35;;;1.08;;
22191;SDS011;11261;52.456;10.850;2022-10-16T08:21:15;1.33;;;0.80;;
22191;SDS011;11261;52.456;10.850;2022-10-16T08:23:48;3.30;;;0.80;;
22191;SDS011;11261;52.456;10.850;2022-10-16T08:26:23;0.80;;;0.70;;
22191;SDS011;11261;52.456;10.850;2022-10-16T08:28:52;3.20;;;1.00;;
22191;SDS011;11261;52.456;10.850;2022-10-16T08:31:20;2.28;;;0.57;;
22191;SDS011;11261;52.456;10.850;2022-10-16T08:33:49;1.38;;;0.85;;
22191;SDS011;11261;52.456;10.850;2022-10-16T08:36:18;0.77;;;0.70;;
22191;SDS011;11261;52.456;10.850;2022-10-16T08:38:48;0.85;;;0.65;;
22191;SDS011;11261;52.456;10.850;2022-10-16T08:41:22;1.70;;;0.80;;
22191;SDS011;11261;52.456;10.850;2022-10-16T08:44:07;0.68;;;0.43;;
22191;SDS011;11261;52.456;10.850;2022-10-16T08:46:56;0.70;;;0.70;;
22191;SDS011;11261;52.456;10.850;2022-10-16T08:49:32;1.05;;;0.52;;
22191;SDS011;11261;52.456;10.850;2022-10-16T08:52:00;0.60;;;0.60;;
22191;SDS011;11261;52.456;10.850;2022-10-16T08:54:31;4.18;;;0.90;;
22191;SDS011;11261;52.456;10.850;2022-10-16T08:57:07;1.83;;;0.60;;
22191;SDS011;11261;52.456;10.850;2022-10-16T08:59:38;2.08;;;0.70;;
22191;SDS011;11261;52.456;10.850;2022-10-16T09:02:15;2.75;;;0.70;;
22191;SDS011;11261;52.456;10.850;2022-10-16T09:05:15;1.33;;;0.88;;
22191;SDS011;11261;52.456;10.850;2022-10-16T09:07:54;2.42;;;0.90;;
22191;SDS011;11261;52.456;10.850;2022-10-16T09:10:41;1.00;;;0.65;;
22191;SDS011;11261;52.456;10.850;2022-10-16T09:13:19;0.70;;;0.60;;
22191;SDS011;11261;52.456;10.850;2022-10-16T09:15:55;0.60;;;0.50;;
22191;SDS011;11261;52.456;10.850;2022-10-16T09:18:34;0.73;;;0.47;;
22191;SDS011;11261;52.456;10.850;2022-10-16T09:21:09;3.55;;;1.35;;
22191;SDS011;11261;52.456;10.850;2022-10-16T09:23:43;2.42;;;1.27;;
22191;SDS011;11261;52.456;10.850;2022-10-16T09:26:13;1.30;;;0.98;;
22191;SDS011;11261;52.456;10.850;2022-10-16T09:28:44;1.65;;;0.88;;
22191;SDS011;11261;52.456;10.850;2022-10-16T09:31:13;2.28;;;0.88;;
22191;SDS011;11261;52.456;10.850;2022-10-16T09:33:48;0.85;;;0.60;;
22191;SDS011;11261;52.456;10.850;2022-10-16T09:36:20;1.55;;;0.90;;
22191;SDS011;11261;52.456;10.850;2022-10-16T09:38:49;7.88;;;0.82;;
22191;SDS011;11261;52.456;10.850;2022-10-16T09:41:21;0.40;;;0.40;;
22191;SDS011;11261;52.456;10.850;2022-10-16T09:43:52;2.92;;;0.73;;
22191;SDS011;11261;52.456;10.850;2022-10-16T09:46:26;0.82;;;0.82;;
22191;SDS011;11261;52.456;10.850;2022-10-16T09:48:57;0.73;;;0.52;;
22191;SDS011;11261;52.456;10.850;2022-10-16T09:51:27;1.10;;;0.50;;
22191;SDS011;11261;52.456;10.850;2022-10-16T09:53:58;0.40;;;0.40;;
22191;SDS011;11261;52.456;10.850;2022-10-16T09:56:29;2.10;;;0.50;;
22191;SDS011;11261;52.456;10.850;2022-10-16T09:59:00;0.68;;;0.50;;
22191;SDS011;11261;52.456;10.850;2022-10-16T10:01:31;0.88;;;0.60;;
22191;SDS011;11261;52.456;10.850;2022-10-16T10:04:05;0.43;;;0.32;;
22191;SDS011;11261;52.456;10.850;2022-10-16T10:06:34;0.73;;;0.45;;
22191;SDS011;11261;52.456;10.850;2022-10-16T10:09:06;0.35;;;0.35;;
22191;SDS011;11261;52.456;10.850;2022-10-16T10:11:45;0.70;;;0.40;;
22191;SDS011;11261;52.456;10.850;2022-10-16T10:14:26;0.35;;;0.35;;
22191;SDS011;11261;52.456;10.850;2022-10-16T10:17:10;1.40;;;0.55;;
22191;SDS011;11261;52.456;10.850;2022-10-16T10:19:46;0.43;;;0.28;;
22191;SDS011;11261;52.456;10.850;2022-10-16T10:22:21;0.40;;;0.40;;
22191;SDS011;11261;52.456;10.850;2022-10-16T10:25:00;0.60;;;0.30;;
22191;SDS011;11261;52.456;10.850;2022-10-16T10:27:46;0.17;;;0.17;;
22191;SDS011;11261;52.456;10.850;2022-10-16T10:30:25;0.50;;;0.45;;
22191;SDS011;11261;52.456;10.850;2022-10-16T10:33:02;0.40;;;0.40;;
22191;SDS011;11261;52.456;10.850;2022-10-16T10:35:48;2.70;;;0.55;;
22191;SDS011;11261;52.456;10.850;2022-10-16T10:38:30;0.93;;;0.40;;
22191;SDS011;11261;52.456;10.850;2022-10-16T10:41:11;0.68;;;0.50;;
22191;SDS011;11261;52.456;10.850;2022-10-16T10:44:06;2.53;;;0.40;;
22191;SDS011;11261;52.456;10.850;2022-10-16T10:46:41;0.95;;;0.45;;
22191;SDS011;11261;52.456;10.850;2022-10-16T10:49:25;2.00;;;0.40;;
22191;SDS011;11261;52.456;10.850;2022-10-16T10:52:13;1.13;;;1.02;;
22191;SDS011;11261;52.456;10.850;2022-10-16T10:54:59;0.73;;;0.40;;
22191;SDS011;11261;52.456;10.850;2022-10-16T10:57:37;0.60;;;0.30;;
22191;SDS011;11261;52.456;10.850;2022-10-16T11:00:15;0.40;;;0.40;;
22191;SDS011;11261;52.456;10.850;2022-10-16T11:02:50;1.75;;;0.40;;
22191;SDS011;11261;52.456;10.850;2022-10-16T11:05:32;0.57;;;0.30;;
22191;SDS011;11261;52.456;10.850;2022-10-16T11:08:07;1.70;;;0.60;;
22191;SDS011;11261;52.456;10.850;2022-10-16T11:10:43;0.60;;;0.50;;
22191;SDS011;11261;52.456;10.850;2022-10-16T11:13:17;0.90;;;0.50;;
22191;SDS011;11261;52.456;10.850;2022-10-16T11:15:52;0.35;;;0.35;;
22191;SDS011;11261;52.456;10.850;2022-10-16T11:18:24;0.95;;;0.40;;
22191;SDS011;11261;52.456;10.850;2022-10-16T11:21:00;0.60;;;0.52;;
22191;SDS011;11261;52.456;10.850;2022-10-16T11:23:35;1.30;;;0.50;;
22191;SDS011;11261;52.456;10.850;2022-10-16T11:26:09;4.18;;;0.75;;
22191;SDS011;11261;52.456;10.850;2022-10-16T11:28:42;0.85;;;0.30;;
22191;SDS011;11261;52.456;10.850;2022-10-16T11:31:16;1.13;;;0.30;;
22191;SDS011;11261;52.456;10.850;2022-10-16T11:33:51;1.65;;;0.47;;
22191;SDS011;11261;52.456;10.850;2022-10-16T11:36:25;0.40;;;0.30;;
22191;SDS011;11261;52.456;10.850;2022-10-16T11:38:58;0.30;;;0.30;;
22191;SDS011;11261;52.456;10.850;2022-10-16T11:41:32;0.38;;;0.30;;
22191;SDS011;11261;52.456;10.850;2022-10-16T11:44:16;1.13;;;0.32;;
22191;SDS011;11261;52.456;10.850;2022-10-16T11:47:06;0.28;;;0.28;;
22191;SDS011;11261;52.456;10.850;2022-10-16T11:50:01;0.40;;;0.40;;
22191;SDS011;11261;52.456;10.850;2022-10-16T11:52:33;0.43;;;0.40;;
22191;SDS011;11261;52.456;10.850;2022-10-16T11:55:12;1.85;;;0.30;;
22191;SDS011;11261;52.456;10.850;2022-10-16T11:57:44;0.40;;;0.40;;
22191;SDS011;11261;52.456;10.850;2022-10-16T12:00:19;1.02;;;0.40;;
22191;SDS011;11261;52.456;10.850;2022-10-16T12:02:56;0.80;;;0.40;;
22191;SDS011;11261;52.456;10.850;2022-10-16T12:05:33;1.25;;;0.40;;
22191;SDS011;11261;52.456;10.850;2022-10-16T12:08:14;0.95;;;0.40;;
22191;SDS011;11261;52.456;10.850;2022-10-16T12:10:44;1.08;;;0.40;;
22191;SDS011;11261;52.456;10.850;2022-10-16T12:13:30;1.40;;;0.30;;
22191;SDS011;11261;52.456;10.850;2022-10-16T12:16:07;1.50;;;0.50;;
22191;SDS011;11261;52.456;10.850;2022-10-16T12:19:08;0.43;;;0.38;;
22191;SDS011;11261;52.456;10.850;2022-10-16T12:21:40;1.27;;;0.50;;
22191;SDS011;11261;52.456;10.850;2022-10-16T12:24:19;0.68;;;0.35;;
22191;SDS011;11261;52.456;10.850;2022-10-16T12:26:53;1.73;;;0.40;;
22191;SDS011;11261;52.456;10.850;2022-10-16T12:29:23;0.88;;;0.40;;
22191;SDS011;11261;52.456;10.850;2022-10-16T12:31:58;2.55;;;0.40;;
22191;SDS011;11261;52.456;10.850;2022-10-16T12:34:29;0.40;;;0.40;;
22191;SDS011;11261;52.456;10.850;2022-10-16T12:37:09;1.88;;;0.50;;
22191;SDS011;11261;52.456;10.850;2022-10-16T12:39:40;0.28;;;0.28;;
22191;SDS011;11261;52.456;10.850;2022-10-16T12:42:22;0.82;;;0.40;;
22191;SDS011;11261;52.456;10.850;2022-10-16T12:45:00;2.50;;;0.40;;
22191;SDS011;11261;52.456;10.850;2022-10-16T12:47:46;1.92;;;0.43;;
22191;SDS011;11261;52.456;10.850;2022-10-16T12:50:31;1.85;;;0.28;;
22191;SDS011;11261;52.456;10.850;2022-10-16T12:53:02;0.70;;;0.52;;
22191;SDS011;11261;52.456;10.850;2022-10-16T12:55:33;1.83;;;0.40;;
22191;SDS011;11261;52.456;10.850;2022-10-16T12:58:24;1.27;;;0.40;;
22191;SDS011;11261;52.456;10.850;2022-10-16T13:01:04;0.73;;;0.43;;
22191;SDS011;11261;52.456;10.850;2022-10-16T13:03:54;0.73;;;0.40;;
22191;SDS011;11261;52.456;10.850;2022-10-16T13:06:35;0.68;;;0.35;;
22191;SDS011;11261;52.456;10.850;2022-10-16T13:09:25;1.20;;;0.40;;
22191;SDS011;11261;52.456;10.850;2022-10-16T13:12:08;0.22;;;0.22;;
22191;SDS011;11261;52.456;10.850;2022-10-16T13:14:58;0.50;;;0.50;;
22191;SDS011;11261;52.456;10.850;2022-10-16T13:17:37;1.35;;;0.40;;
22191;SDS011;11261;52.456;10.850;2022-10-16T13:20:12;2.45;;;0.45;;
22191;SDS011;11261;52.456;10.850;2022-10-16T13:22:50;0.20;;;0.20;;
22191;SDS011;11261;52.456;10.850;2022-10-16T13:25:26;1.45;;;0.38;;
22191;SDS011;11261;52.456;10.850;2022-10-16T13:28:01;0.52;;;0.40;;
22191;SDS011;11261;52.456;10.850;2022-10-16T13:30:31;0.40;;;0.30;;
22191;SDS011;11261;52.456;10.850;2022-10-16T13:33:05;2.13;;;0.50;;
22191;SDS011;11261;52.456;10.850;2022-10-16T13:35:46;1.00;;;0.50;;
22191;SDS011;11261;52.456;10.850;2022-10-16T13:38:17;0.50;;;0.40;;
22191;SDS011;11261;52.456;10.850;2022-10-16T13:40:48;1.25;;;0.30;;
22191;SDS011;11261;52.456;10.850;2022-10-16T13:43:17;2.05;;;0.40;;
22191;SDS011;11261;52.456;10.850;2022-10-16T13:45:58;0.30;;;0.30;;
22191;SDS011;11261;52.456;10.850;2022-10-16T13:48:28;0.95;;;0.40;;
22191;SDS011;11261;52.456;10.850;2022-10-16T13:50:58;1.05;;;0.60;;
22191;SDS011;11261;52.456;10.850;2022-10-16T13:53:29;0.73;;;0.30;;
22191;SDS011;11261;52.456;10.850;2022-10-16T13:55:58;1.10;;;0.55;;
22191;SDS011;11261;52.456;10.850;2022-10-16T13:58:27;1.85;;;0.40;;
22191;SDS011;11261;52.456;10.850;2022-10-16T14:00:56;0.50;;;0.30;;
22191;SDS011;11261;52.456;10.850;2022-10-16T14:03:26;0.57;;;0.30;;
22191;SDS011;11261;52.456;10.850;2022-10-16T14:05:56;1.02;;;0.45;;
22191;SDS011;11261;52.456;10.850;2022-10-16T14:08:29;0.30;;;0.30;;
22191;SDS011;11261;52.456;10.850;2022-10-16T14:10:59;2.08;;;0.50;;
22191;SDS011;11261;52.456;10.850;2022-10-16T14:13:31;2.40;;;0.40;;
22191;SDS011;11261;52.456;10.850;2022-10-16T14:16:06;2.83;;;0.50;;
22191;SDS011;11261;52.456;10.850;2022-10-16T14:18:37;1.15;;;0.50;;
22191;SDS011;11261;52.456;10.850;2022-10-16T14:21:07;0.10;;;0.10;;
22191;SDS011;11261;52.456;10.850;2022-10-16T14:23:42;0.38;;;0.30;;
22191;SDS011;11261;52.456;10.850;2022-10-16T14:26:14;0.40;;;0.30;;
22191;SDS011;11261;52.456;10.850;2022-10-16T14:28:45;1.60;;;0.40;;
22191;SDS011;11261;52.456;10.850;2022-10-16T14:31:23;0.98;;;0.40;;
22191;SDS011;11261;52.456;10.850;2022-10-16T14:33:57;0.55;;;0.55;;
22191;SDS011;11261;52.456;10.850;2022-10-16T14:36:26;0.43;;;0.30;;
22191;SDS011;11261;52.456;10.850;2022-10-16T14:38:58;1.52;;;0.40;;
22191;SDS011;11261;52.456;10.850;2022-10-16T14:41:29;0.93;;;0.30;;
22191;SDS011;11261;52.456;10.850;2022-10-16T14:44:01;0.45;;;0.30;;
22191;SDS011;11261;52.456;10.850;2022-10-16T14:46:32;0.40;;;0.40;;
22191;SDS011;11261;52.456;10.850;2022-10-16T14:49:04;1.13;;;0.40;;
22191;SDS011;11261;52.456;10.850;2022-10-16T14:51:42;0.30;;;0.30;;
22191;SDS011;11261;52.456;10.850;2022-10-16T14:54:13;0.73;;;0.40;;
22191;SDS011;11261;52.456;10.850;2022-10-16T14:56:45;1.52;;;0.40;;
22191;SDS011;11261;52.456;10.850;2022-10-16T14:59:16;0.95;;;0.30;;
22191;SDS011;11261;52.456;10.850;2022-10-16T15:01:48;3.33;;;0.60;;
22191;SDS011;11261;52.456;10.850;2022-10-16T15:04:16;0.57;;;0.40;;